KMSS/MSS METAR and TAF weather

Enter ICAO airport designator
Station Type Date Time Source
KMSS METAR 2019/09/21 20:53 UTC NOAA

KMSS 212053Z AUTO 33006KT 10SM CLR 27/17 A3013 RMK AO2 SLP203 T02670167 56012


Station Type Date Time Source
KMSS Decoded METAR 2019/09/21 20:53 UTC NOAA

MASSENA INTERNATIONAL -RICHARDS FLD, NY, United States (KMSS) 44-56N 074-51W 66M
Sep 21, 2019 - 04:53 PM EDT / 2019.09.21 2053 UTC
Wind: from the NNW (330 degrees) at 7 MPH (6 KT):0
Visibility: 10 mile(s):0
Sky conditions: clear
Temperature: 80.1 F (26.7 C)
Dew Point: 62.1 F (16.7 C)
Relative Humidity: 54%
Pressure (altimeter): 30.13 in. Hg (1020 hPa)
Pressure tendency: 0.04 inches (1.2 hPa) lower than three hours ago
ob: KMSS 212053Z AUTO 33006KT 10SM CLR 27/17 A3013 RMK AO2 SLP203 T02670167 56012
cycle: 21

Station Type Date Time Source
KMSS TAF 2019/09/21 18:27 UTC NOAA

TAF KMSS 211725Z 2118/2218 21005KT P6SM SKC
FM221500 22011G20KT P6SM BKN120

Example: see airport list